Terminal Aerodrome Forecast
Issued by NWS Albany, NY

Home | Current Version | Previous Version | Text Only | Print | Product List | Glossary On
Versions: 1 2 3 4 5 6 7 8 9 10 11 12
000
FTUS41 KALY 251741
TAFGFL
TAF
KGFL 251741Z 2518/2618 08010KT 6SM -RA BR OVC035 WS020/09035KT
      TEMPO 2518/2520 4SM -RA BR OVC020
     FM252000 05012G22KT 4SM -RA BR SCT008 OVC020
     FM260200 03007KT 3SM -RA BR BKN008 OVC015
     FM260600 04005KT 2SM -RA BR SCT004 OVC008
     FM261500 36006KT 5SM -SHRA BR SCT008 OVC015=

USA.gov is the U.S. government's official web portal to all federal, state and local government web resources and services.